sensor_id;sensor_type;location;lat;lon;timestamp;P1;durP1;ratioP1;P2;durP2;ratioP2
21761;SDS011;11203;50.870;20.682;2022-09-09T00:00:24;57.03;;;44.50;;
21761;SDS011;11203;50.870;20.682;2022-09-09T00:08:56;54.35;;;43.47;;
21761;SDS011;11203;50.870;20.682;2022-09-09T00:15:03;54.90;;;41.05;;
21761;SDS011;11203;50.870;20.682;2022-09-09T00:20:35;49.08;;;40.35;;
21761;SDS011;11203;50.870;20.682;2022-09-09T00:23:17;53.78;;;41.47;;
21761;SDS011;11203;50.870;20.682;2022-09-09T00:26:02;53.65;;;41.10;;
21761;SDS011;11203;50.870;20.682;2022-09-09T00:28:36;51.90;;;40.58;;
21761;SDS011;11203;50.870;20.682;2022-09-09T00:31:35;53.10;;;40.80;;
21761;SDS011;11203;50.870;20.682;2022-09-09T00:36:42;53.95;;;42.00;;
21761;SDS011;11203;50.870;20.682;2022-09-09T00:39:45;59.85;;;43.05;;
21761;SDS011;11203;50.870;20.682;2022-09-09T00:47:45;64.13;;;46.10;;
21761;SDS011;11203;50.870;20.682;2022-09-09T00:50:27;57.28;;;43.10;;
21761;SDS011;11203;50.870;20.682;2022-09-09T00:58:37;59.20;;;43.72;;
21761;SDS011;11203;50.870;20.682;2022-09-09T01:01:09;61.42;;;44.85;;
21761;SDS011;11203;50.870;20.682;2022-09-09T01:03:41;62.72;;;46.30;;
21761;SDS011;11203;50.870;20.682;2022-09-09T01:06:36;62.70;;;46.08;;
21761;SDS011;11203;50.870;20.682;2022-09-09T01:09:15;64.28;;;46.60;;
21761;SDS011;11203;50.870;20.682;2022-09-09T01:17:02;58.85;;;43.88;;
21761;SDS011;11203;50.870;20.682;2022-09-09T01:22:25;65.10;;;45.95;;
21761;SDS011;11203;50.870;20.682;2022-09-09T01:27:43;66.70;;;45.92;;
21761;SDS011;11203;50.870;20.682;2022-09-09T01:30:13;65.82;;;46.33;;
21761;SDS011;11203;50.870;20.682;2022-09-09T01:32:53;62.65;;;45.28;;
21761;SDS011;11203;50.870;20.682;2022-09-09T01:35:28;62.60;;;45.63;;
21761;SDS011;11203;50.870;20.682;2022-09-09T01:38:29;73.45;;;47.40;;
21761;SDS011;11203;50.870;20.682;2022-09-09T01:40:58;67.18;;;46.60;;
21761;SDS011;11203;50.870;20.682;2022-09-09T01:43:24;72.15;;;48.40;;
21761;SDS011;11203;50.870;20.682;2022-09-09T01:45:52;72.85;;;47.92;;
21761;SDS011;11203;50.870;20.682;2022-09-09T01:48:22;68.05;;;46.85;;
21761;SDS011;11203;50.870;20.682;2022-09-09T01:50:50;67.43;;;46.28;;
21761;SDS011;11203;50.870;20.682;2022-09-09T01:53:17;63.70;;;46.28;;
21761;SDS011;11203;50.870;20.682;2022-09-09T01:55:55;66.78;;;45.67;;
21761;SDS011;11203;50.870;20.682;2022-09-09T02:01:34;69.53;;;46.50;;
21761;SDS011;11203;50.870;20.682;2022-09-09T02:07:22;60.95;;;42.63;;
21761;SDS011;11203;50.870;20.682;2022-09-09T02:10:29;56.22;;;40.72;;
21761;SDS011;11203;50.870;20.682;2022-09-09T02:13:13;56.95;;;42.20;;
21761;SDS011;11203;50.870;20.682;2022-09-09T02:18:32;46.50;;;32.38;;
21761;SDS011;11203;50.870;20.682;2022-09-09T02:21:15;43.75;;;28.90;;
21761;SDS011;11203;50.870;20.682;2022-09-09T02:23:43;43.65;;;28.52;;
21761;SDS011;11203;50.870;20.682;2022-09-09T02:26:14;38.63;;;26.45;;
21761;SDS011;11203;50.870;20.682;2022-09-09T02:28:45;40.20;;;27.17;;
21761;SDS011;11203;50.870;20.682;2022-09-09T02:31:14;37.70;;;26.38;;
21761;SDS011;11203;50.870;20.682;2022-09-09T02:33:45;34.83;;;25.45;;
21761;SDS011;11203;50.870;20.682;2022-09-09T02:36:18;38.30;;;25.75;;
21761;SDS011;11203;50.870;20.682;2022-09-09T02:38:47;37.75;;;26.20;;
21761;SDS011;11203;50.870;20.682;2022-09-09T02:41:19;34.70;;;24.35;;
21761;SDS011;11203;50.870;20.682;2022-09-09T02:43:50;32.08;;;23.60;;
21761;SDS011;11203;50.870;20.682;2022-09-09T02:46:24;33.92;;;25.38;;
21761;SDS011;11203;50.870;20.682;2022-09-09T02:49:57;31.35;;;25.00;;
21761;SDS011;11203;50.870;20.682;2022-09-09T02:58:04;33.60;;;25.42;;
21761;SDS011;11203;50.870;20.682;2022-09-09T03:00:33;34.15;;;25.25;;
21761;SDS011;11203;50.870;20.682;2022-09-09T03:03:04;33.00;;;26.05;;
21761;SDS011;11203;50.870;20.682;2022-09-09T03:05:32;30.27;;;22.05;;
21761;SDS011;11203;50.870;20.682;2022-09-09T03:07:58;31.38;;;25.83;;
21761;SDS011;11203;50.870;20.682;2022-09-09T03:10:24;32.28;;;26.17;;
21761;SDS011;11203;50.870;20.682;2022-09-09T03:12:50;34.38;;;25.63;;
21761;SDS011;11203;50.870;20.682;2022-09-09T03:15:16;37.20;;;27.23;;
21761;SDS011;11203;50.870;20.682;2022-09-09T03:17:43;35.72;;;27.50;;
21761;SDS011;11203;50.870;20.682;2022-09-09T03:20:09;31.52;;;25.92;;
21761;SDS011;11203;50.870;20.682;2022-09-09T03:22:35;31.17;;;25.77;;
21761;SDS011;11203;50.870;20.682;2022-09-09T03:25:01;32.83;;;25.38;;
21761;SDS011;11203;50.870;20.682;2022-09-09T03:27:30;35.30;;;26.52;;
21761;SDS011;11203;50.870;20.682;2022-09-09T03:29:57;35.60;;;26.55;;
21761;SDS011;11203;50.870;20.682;2022-09-09T03:32:23;35.13;;;26.70;;
21761;SDS011;11203;50.870;20.682;2022-09-09T03:34:51;39.03;;;29.25;;
21761;SDS011;11203;50.870;20.682;2022-09-09T03:37:17;32.03;;;26.40;;
21761;SDS011;11203;50.870;20.682;2022-09-09T03:39:45;34.58;;;27.98;;
21761;SDS011;11203;50.870;20.682;2022-09-09T03:42:14;35.55;;;27.33;;
21761;SDS011;11203;50.870;20.682;2022-09-09T03:44:44;33.28;;;27.70;;
21761;SDS011;11203;50.870;20.682;2022-09-09T03:47:19;39.22;;;28.40;;
21761;SDS011;11203;50.870;20.682;2022-09-09T03:49:47;30.67;;;25.40;;
21761;SDS011;11203;50.870;20.682;2022-09-09T03:52:16;32.42;;;25.73;;
21761;SDS011;11203;50.870;20.682;2022-09-09T03:54:43;30.60;;;26.23;;
21761;SDS011;11203;50.870;20.682;2022-09-09T03:57:09;31.83;;;26.20;;
21761;SDS011;11203;50.870;20.682;2022-09-09T03:59:36;30.23;;;24.10;;
21761;SDS011;11203;50.870;20.682;2022-09-09T04:02:02;29.67;;;24.38;;
21761;SDS011;11203;50.870;20.682;2022-09-09T04:04:29;25.63;;;22.38;;
21761;SDS011;11203;50.870;20.682;2022-09-09T04:06:55;26.60;;;21.65;;
21761;SDS011;11203;50.870;20.682;2022-09-09T04:09:21;25.48;;;20.63;;
21761;SDS011;11203;50.870;20.682;2022-09-09T04:11:51;23.98;;;20.55;;
21761;SDS011;11203;50.870;20.682;2022-09-09T04:14:18;23.08;;;20.05;;
21761;SDS011;11203;50.870;20.682;2022-09-09T04:16:45;25.02;;;20.67;;
21761;SDS011;11203;50.870;20.682;2022-09-09T04:19:12;26.38;;;22.13;;
21761;SDS011;11203;50.870;20.682;2022-09-09T04:21:42;23.38;;;20.88;;
21761;SDS011;11203;50.870;20.682;2022-09-09T04:24:08;24.70;;;21.67;;
21761;SDS011;11203;50.870;20.682;2022-09-09T04:26:37;23.65;;;20.70;;
21761;SDS011;11203;50.870;20.682;2022-09-09T04:29:04;26.08;;;21.08;;
21761;SDS011;11203;50.870;20.682;2022-09-09T04:31:32;25.58;;;22.20;;
21761;SDS011;11203;50.870;20.682;2022-09-09T04:33:59;24.10;;;20.98;;
21761;SDS011;11203;50.870;20.682;2022-09-09T04:36:31;23.70;;;20.50;;
21761;SDS011;11203;50.870;20.682;2022-09-09T04:39:01;24.65;;;22.02;;
21761;SDS011;11203;50.870;20.682;2022-09-09T04:41:27;23.77;;;21.20;;
21761;SDS011;11203;50.870;20.682;2022-09-09T04:43:53;24.80;;;22.08;;
21761;SDS011;11203;50.870;20.682;2022-09-09T04:46:20;25.75;;;22.58;;
21761;SDS011;11203;50.870;20.682;2022-09-09T04:48:48;24.73;;;22.00;;
21761;SDS011;11203;50.870;20.682;2022-09-09T04:51:15;25.02;;;22.35;;
21761;SDS011;11203;50.870;20.682;2022-09-09T04:53:41;24.30;;;21.70;;
21761;SDS011;11203;50.870;20.682;2022-09-09T04:56:09;27.25;;;21.25;;
21761;SDS011;11203;50.870;20.682;2022-09-09T04:58:42;26.77;;;22.92;;
21761;SDS011;11203;50.870;20.682;2022-09-09T05:01:09;22.42;;;20.02;;
21761;SDS011;11203;50.870;20.682;2022-09-09T05:03:37;25.75;;;21.38;;
21761;SDS011;11203;50.870;20.682;2022-09-09T05:06:04;24.58;;;20.95;;
21761;SDS011;11203;50.870;20.682;2022-09-09T05:08:40;25.55;;;21.67;;
21761;SDS011;11203;50.870;20.682;2022-09-09T05:14:03;26.13;;;23.30;;
21761;SDS011;11203;50.870;20.682;2022-09-09T05:16:30;27.08;;;23.77;;
21761;SDS011;11203;50.870;20.682;2022-09-09T05:18:57;26.13;;;23.33;;
21761;SDS011;11203;50.870;20.682;2022-09-09T05:21:24;26.58;;;23.70;;
21761;SDS011;11203;50.870;20.682;2022-09-09T05:23:51;24.40;;;21.33;;
21761;SDS011;11203;50.870;20.682;2022-09-09T05:26:19;26.98;;;23.10;;
21761;SDS011;11203;50.870;20.682;2022-09-09T05:28:47;24.85;;;21.70;;
21761;SDS011;11203;50.870;20.682;2022-09-09T05:31:13;24.90;;;21.60;;
21761;SDS011;11203;50.870;20.682;2022-09-09T05:33:42;26.38;;;22.60;;
21761;SDS011;11203;50.870;20.682;2022-09-09T05:36:12;25.33;;;22.63;;
21761;SDS011;11203;50.870;20.682;2022-09-09T05:38:40;22.02;;;19.33;;
21761;SDS011;11203;50.870;20.682;2022-09-09T05:41:07;21.33;;;18.98;;
21761;SDS011;11203;50.870;20.682;2022-09-09T05:43:35;20.48;;;17.25;;
21761;SDS011;11203;50.870;20.682;2022-09-09T05:46:06;19.83;;;17.80;;
21761;SDS011;11203;50.870;20.682;2022-09-09T05:48:41;22.30;;;18.90;;
21761;SDS011;11203;50.870;20.682;2022-09-09T05:51:12;22.75;;;19.20;;
21761;SDS011;11203;50.870;20.682;2022-09-09T05:53:44;22.10;;;18.85;;
21761;SDS011;11203;50.870;20.682;2022-09-09T05:56:12;23.65;;;18.90;;
21761;SDS011;11203;50.870;20.682;2022-09-09T05:58:44;20.73;;;18.65;;
21761;SDS011;11203;50.870;20.682;2022-09-09T06:01:28;21.38;;;19.27;;
21761;SDS011;11203;50.870;20.682;2022-09-09T06:03:58;19.17;;;17.27;;
21761;SDS011;11203;50.870;20.682;2022-09-09T06:06:25;20.33;;;18.33;;
21761;SDS011;11203;50.870;20.682;2022-09-09T06:08:57;21.00;;;18.80;;
21761;SDS011;11203;50.870;20.682;2022-09-09T06:11:25;19.13;;;17.13;;
21761;SDS011;11203;50.870;20.682;2022-09-09T06:13:56;21.90;;;18.23;;
21761;SDS011;11203;50.870;20.682;2022-09-09T06:16:24;21.92;;;18.92;;
21761;SDS011;11203;50.870;20.682;2022-09-09T06:18:52;21.73;;;19.48;;
21761;SDS011;11203;50.870;20.682;2022-09-09T06:21:21;21.23;;;19.08;;
21761;SDS011;11203;50.870;20.682;2022-09-09T06:23:53;21.30;;;19.00;;
21761;SDS011;11203;50.870;20.682;2022-09-09T06:28:51;20.10;;;17.98;;
21761;SDS011;11203;50.870;20.682;2022-09-09T06:31:20;18.70;;;16.77;;
21761;SDS011;11203;50.870;20.682;2022-09-09T06:33:52;21.75;;;18.38;;
21761;SDS011;11203;50.870;20.682;2022-09-09T06:36:21;20.65;;;15.90;;
21761;SDS011;11203;50.870;20.682;2022-09-09T06:38:51;20.27;;;15.95;;
21761;SDS011;11203;50.870;20.682;2022-09-09T06:41:19;18.17;;;16.27;;
21761;SDS011;11203;50.870;20.682;2022-09-09T06:43:49;19.25;;;16.33;;
21761;SDS011;11203;50.870;20.682;2022-09-09T06:46:18;17.40;;;15.60;;
21761;SDS011;11203;50.870;20.682;2022-09-09T06:48:48;16.20;;;14.45;;
21761;SDS011;11203;50.870;20.682;2022-09-09T06:53:45;12.93;;;11.57;;
21761;SDS011;11203;50.870;20.682;2022-09-09T06:58:53;16.45;;;11.77;;
21761;SDS011;11203;50.870;20.682;2022-09-09T07:01:24;12.02;;;10.82;;
21761;SDS011;11203;50.870;20.682;2022-09-09T07:03:54;12.52;;;11.25;;
21761;SDS011;11203;50.870;20.682;2022-09-09T07:06:26;12.32;;;11.07;;
21761;SDS011;11203;50.870;20.682;2022-09-09T07:08:58;12.15;;;11.05;;
21761;SDS011;11203;50.870;20.682;2022-09-09T07:11:28;13.27;;;11.98;;
21761;SDS011;11203;50.870;20.682;2022-09-09T07:13:59;13.30;;;11.90;;
21761;SDS011;11203;50.870;20.682;2022-09-09T07:16:26;14.52;;;12.98;;
21761;SDS011;11203;50.870;20.682;2022-09-09T07:18:54;15.70;;;13.77;;
21761;SDS011;11203;50.870;20.682;2022-09-09T07:21:23;13.98;;;12.65;;
21761;SDS011;11203;50.870;20.682;2022-09-09T07:23:54;13.90;;;12.63;;
21761;SDS011;11203;50.870;20.682;2022-09-09T07:26:22;14.60;;;13.10;;
21761;SDS011;11203;50.870;20.682;2022-09-09T07:28:54;12.65;;;10.50;;
21761;SDS011;11203;50.870;20.682;2022-09-09T07:31:27;14.32;;;12.82;;
21761;SDS011;11203;50.870;20.682;2022-09-09T07:33:57;15.60;;;11.50;;
21761;SDS011;11203;50.870;20.682;2022-09-09T07:36:26;13.40;;;12.10;;
21761;SDS011;11203;50.870;20.682;2022-09-09T07:38:58;12.48;;;8.38;;
21761;SDS011;11203;50.870;20.682;2022-09-09T07:41:29;13.65;;;11.93;;
21761;SDS011;11203;50.870;20.682;2022-09-09T07:44:08;12.40;;;10.38;;
21761;SDS011;11203;50.870;20.682;2022-09-09T07:46:38;10.70;;;9.65;;
21761;SDS011;11203;50.870;20.682;2022-09-09T07:49:06;14.98;;;11.80;;
21761;SDS011;11203;50.870;20.682;2022-09-09T07:51:33;11.90;;;9.98;;
21761;SDS011;11203;50.870;20.682;2022-09-09T07:54:03;13.65;;;11.15;;
21761;SDS011;11203;50.870;20.682;2022-09-09T07:56:33;9.60;;;8.70;;
21761;SDS011;11203;50.870;20.682;2022-09-09T07:58:59;10.63;;;9.52;;
21761;SDS011;11203;50.870;20.682;2022-09-09T08:01:27;12.68;;;10.45;;
21761;SDS011;11203;50.870;20.682;2022-09-09T08:04:00;10.70;;;9.60;;
21761;SDS011;11203;50.870;20.682;2022-09-09T08:06:30;11.73;;;10.52;;
21761;SDS011;11203;50.870;20.682;2022-09-09T08:08:59;11.15;;;9.30;;
21761;SDS011;11203;50.870;20.682;2022-09-09T08:11:27;9.95;;;8.95;;
21761;SDS011;11203;50.870;20.682;2022-09-09T08:13:54;10.35;;;9.35;;
21761;SDS011;11203;50.870;20.682;2022-09-09T08:16:22;11.85;;;10.65;;
21761;SDS011;11203;50.870;20.682;2022-09-09T08:18:51;10.25;;;9.25;;
21761;SDS011;11203;50.870;20.682;2022-09-09T08:21:21;12.38;;;10.73;;
21761;SDS011;11203;50.870;20.682;2022-09-09T08:23:50;11.20;;;10.20;;
21761;SDS011;11203;50.870;20.682;2022-09-09T08:28:50;9.55;;;8.75;;
21761;SDS011;11203;50.870;20.682;2022-09-09T08:31:22;10.40;;;9.50;;
21761;SDS011;11203;50.870;20.682;2022-09-09T08:33:54;10.23;;;9.05;;
21761;SDS011;11203;50.870;20.682;2022-09-09T08:36:22;8.73;;;7.28;;
21761;SDS011;11203;50.870;20.682;2022-09-09T08:38:54;9.15;;;8.35;;
21761;SDS011;11203;50.870;20.682;2022-09-09T08:50:16;9.25;;;8.35;;
21761;SDS011;11203;50.870;20.682;2022-09-09T08:55:47;8.30;;;7.00;;
21761;SDS011;11203;50.870;20.682;2022-09-09T08:58:31;9.63;;;6.90;;
21761;SDS011;11203;50.870;20.682;2022-09-09T09:09:11;7.68;;;6.97;;
21761;SDS011;11203;50.870;20.682;2022-09-09T09:11:50;9.02;;;8.13;;
21761;SDS011;11203;50.870;20.682;2022-09-09T09:14:26;9.63;;;8.82;;
21761;SDS011;11203;50.870;20.682;2022-09-09T09:16:59;7.70;;;7.10;;
21761;SDS011;11203;50.870;20.682;2022-09-09T09:19:29;9.25;;;6.63;;
21761;SDS011;11203;50.870;20.682;2022-09-09T09:22:04;7.65;;;6.93;;
21761;SDS011;11203;50.870;20.682;2022-09-09T09:24:45;8.07;;;7.28;;
21761;SDS011;11203;50.870;20.682;2022-09-09T09:27:32;7.70;;;7.10;;
21761;SDS011;11203;50.870;20.682;2022-09-09T09:30:35;6.47;;;5.03;;
21761;SDS011;11203;50.870;20.682;2022-09-09T09:33:22;6.43;;;5.82;;
21761;SDS011;11203;50.870;20.682;2022-09-09T09:36:06;6.78;;;6.15;;
21761;SDS011;11203;50.870;20.682;2022-09-09T09:38:33;7.13;;;6.53;;
21761;SDS011;11203;50.870;20.682;2022-09-09T09:41:01;7.88;;;7.10;;
21761;SDS011;11203;50.870;20.682;2022-09-09T09:43:29;8.13;;;7.35;;
21761;SDS011;11203;50.870;20.682;2022-09-09T09:46:00;8.00;;;6.63;;
21761;SDS011;11203;50.870;20.682;2022-09-09T09:48:29;6.85;;;6.25;;
21761;SDS011;11203;50.870;20.682;2022-09-09T09:50:56;6.82;;;6.22;;
21761;SDS011;11203;50.870;20.682;2022-09-09T09:53:27;6.18;;;5.60;;
21761;SDS011;11203;50.870;20.682;2022-09-09T09:58:31;7.13;;;6.47;;
21761;SDS011;11203;50.870;20.682;2022-09-09T10:01:27;6.68;;;6.07;;
21761;SDS011;11203;50.870;20.682;2022-09-09T10:06:46;7.22;;;5.70;;
21761;SDS011;11203;50.870;20.682;2022-09-09T10:09:20;6.13;;;5.40;;
21761;SDS011;11203;50.870;20.682;2022-09-09T10:17:36;6.38;;;5.78;;
21761;SDS011;11203;50.870;20.682;2022-09-09T10:26:32;5.53;;;4.93;;
21761;SDS011;11203;50.870;20.682;2022-09-09T10:37:04;5.00;;;4.60;;
21761;SDS011;11203;50.870;20.682;2022-09-09T10:55:52;6.35;;;5.75;;
21761;SDS011;11203;50.870;20.682;2022-09-09T10:58:27;7.18;;;5.45;;
21761;SDS011;11203;50.870;20.682;2022-09-09T11:01:02;6.18;;;5.68;;
21761;SDS011;11203;50.870;20.682;2022-09-09T11:03:41;5.53;;;4.95;;
21761;SDS011;11203;50.870;20.682;2022-09-09T11:06:16;5.70;;;5.13;;
21761;SDS011;11203;50.870;20.682;2022-09-09T11:08:46;5.82;;;4.82;;
21761;SDS011;11203;50.870;20.682;2022-09-09T11:17:04;5.03;;;4.60;;
21761;SDS011;11203;50.870;20.682;2022-09-09T11:19:40;5.57;;;4.88;;
21761;SDS011;11203;50.870;20.682;2022-09-09T11:22:16;5.97;;;4.85;;
21761;SDS011;11203;50.870;20.682;2022-09-09T11:30:39;4.97;;;4.47;;
21761;SDS011;11203;50.870;20.682;2022-09-09T11:41:33;4.40;;;4.00;;
21761;SDS011;11203;50.870;20.682;2022-09-09T11:44:12;4.80;;;4.40;;
21761;SDS011;11203;50.870;20.682;2022-09-09T11:46:53;5.30;;;4.90;;
21761;SDS011;11203;50.870;20.682;2022-09-09T11:49:39;4.07;;;3.72;;
21761;SDS011;11203;50.870;20.682;2022-09-09T11:52:24;4.53;;;4.13;;
21761;SDS011;11203;50.870;20.682;2022-09-09T11:55:20;4.38;;;4.07;;
21761;SDS011;11203;50.870;20.682;2022-09-09T12:03:31;4.00;;;3.70;;
21761;SDS011;11203;50.870;20.682;2022-09-09T12:06:20;5.00;;;4.15;;
21761;SDS011;11203;50.870;20.682;2022-09-09T12:09:08;4.50;;;4.13;;
21761;SDS011;11203;50.870;20.682;2022-09-09T12:12:06;4.13;;;3.83;;
21761;SDS011;11203;50.870;20.682;2022-09-09T12:17:24;4.45;;;4.05;;
21761;SDS011;11203;50.870;20.682;2022-09-09T12:20:00;4.30;;;3.90;;
21761;SDS011;11203;50.870;20.682;2022-09-09T12:25:58;4.80;;;4.22;;
21761;SDS011;11203;50.870;20.682;2022-09-09T12:40:06;4.53;;;4.22;;
21761;SDS011;11203;50.870;20.682;2022-09-09T12:42:47;4.50;;;4.20;;
21761;SDS011;11203;50.870;20.682;2022-09-09T12:45:18;4.45;;;4.15;;
21761;SDS011;11203;50.870;20.682;2022-09-09T12:47:51;6.47;;;4.03;;
21761;SDS011;11203;50.870;20.682;2022-09-09T12:50:22;4.32;;;3.95;;
21761;SDS011;11203;50.870;20.682;2022-09-09T12:52:52;4.72;;;4.25;;
21761;SDS011;11203;50.870;20.682;2022-09-09T12:55:24;5.05;;;4.47;;
21761;SDS011;11203;50.870;20.682;2022-09-09T12:57:55;4.78;;;4.38;;
21761;SDS011;11203;50.870;20.682;2022-09-09T13:00:24;4.78;;;4.38;;
21761;SDS011;11203;50.870;20.682;2022-09-09T13:02:52;4.43;;;4.03;;
21761;SDS011;11203;50.870;20.682;2022-09-09T13:05:24;4.75;;;4.35;;
21761;SDS011;11203;50.870;20.682;2022-09-09T13:08:03;5.07;;;4.47;;
21761;SDS011;11203;50.870;20.682;2022-09-09T13:10:35;5.13;;;4.72;;
21761;SDS011;11203;50.870;20.682;2022-09-09T13:13:19;4.60;;;4.30;;
21761;SDS011;11203;50.870;20.682;2022-09-09T13:15:55;4.70;;;4.30;;
21761;SDS011;11203;50.870;20.682;2022-09-09T13:18:25;4.82;;;4.53;;
21761;SDS011;11203;50.870;20.682;2022-09-09T13:20:55;4.50;;;4.20;;
21761;SDS011;11203;50.870;20.682;2022-09-09T13:23:30;4.53;;;3.90;;
21761;SDS011;11203;50.870;20.682;2022-09-09T13:26:03;4.10;;;3.80;;
21761;SDS011;11203;50.870;20.682;2022-09-09T13:28:47;4.43;;;4.13;;
21761;SDS011;11203;50.870;20.682;2022-09-09T13:31:24;5.28;;;4.43;;
21761;SDS011;11203;50.870;20.682;2022-09-09T13:33:55;4.40;;;4.00;;
21761;SDS011;11203;50.870;20.682;2022-09-09T13:36:29;4.35;;;3.95;;
21761;SDS011;11203;50.870;20.682;2022-09-09T13:39:00;4.20;;;3.90;;
21761;SDS011;11203;50.870;20.682;2022-09-09T13:41:50;4.38;;;4.07;;
21761;SDS011;11203;50.870;20.682;2022-09-09T13:44:20;5.80;;;4.40;;
21761;SDS011;11203;50.870;20.682;2022-09-09T13:47:04;4.18;;;3.78;;
21761;SDS011;11203;50.870;20.682;2022-09-09T13:49:44;4.50;;;4.10;;
21761;SDS011;11203;50.870;20.682;2022-09-09T13:52:15;4.65;;;4.35;;
21761;SDS011;11203;50.870;20.682;2022-09-09T13:54:50;4.40;;;4.03;;
21761;SDS011;11203;50.870;20.682;2022-09-09T13:57:24;4.25;;;3.83;;
21761;SDS011;11203;50.870;20.682;2022-09-09T13:59:51;4.00;;;3.70;;
21761;SDS011;11203;50.870;20.682;2022-09-09T14:02:20;4.00;;;3.67;;
21761;SDS011;11203;50.870;20.682;2022-09-09T14:04:48;4.35;;;4.00;;
21761;SDS011;11203;50.870;20.682;2022-09-09T14:07:16;4.30;;;3.67;;
21761;SDS011;11203;50.870;20.682;2022-09-09T14:09:43;15.85;;;13.38;;
21761;SDS011;11203;50.870;20.682;2022-09-09T14:12:14;4.53;;;4.10;;
21761;SDS011;11203;50.870;20.682;2022-09-09T14:14:41;5.53;;;4.10;;
21761;SDS011;11203;50.870;20.682;2022-09-09T14:17:08;5.05;;;3.90;;
21761;SDS011;11203;50.870;20.682;2022-09-09T14:19:34;4.90;;;3.83;;
21761;SDS011;11203;50.870;20.682;2022-09-09T14:22:02;4.45;;;3.85;;
21761;SDS011;11203;50.870;20.682;2022-09-09T14:24:29;3.80;;;3.50;;
21761;SDS011;11203;50.870;20.682;2022-09-09T14:26:55;4.50;;;4.10;;
21761;SDS011;11203;50.870;20.682;2022-09-09T14:29:21;4.57;;;4.10;;
21761;SDS011;11203;50.870;20.682;2022-09-09T14:31:47;4.07;;;3.60;;
21761;SDS011;11203;50.870;20.682;2022-09-09T14:34:13;3.85;;;3.45;;
21761;SDS011;11203;50.870;20.682;2022-09-09T14:36:39;4.35;;;3.97;;
21761;SDS011;11203;50.870;20.682;2022-09-09T14:39:07;4.28;;;3.80;;
21761;SDS011;11203;50.870;20.682;2022-09-09T14:41:33;3.42;;;3.13;;
21761;SDS011;11203;50.870;20.682;2022-09-09T14:43:59;3.63;;;3.28;;
21761;SDS011;11203;50.870;20.682;2022-09-09T14:46:25;3.70;;;3.40;;
21761;SDS011;11203;50.870;20.682;2022-09-09T14:48:52;3.85;;;3.30;;
21761;SDS011;11203;50.870;20.682;2022-09-09T14:51:19;3.90;;;3.50;;
21761;SDS011;11203;50.870;20.682;2022-09-09T14:53:48;3.95;;;3.65;;
21761;SDS011;11203;50.870;20.682;2022-09-09T14:56:18;6.57;;;5.95;;
21761;SDS011;11203;50.870;20.682;2022-09-09T14:58:48;6.82;;;6.22;;
21761;SDS011;11203;50.870;20.682;2022-09-09T15:01:17;5.28;;;4.78;;
21761;SDS011;11203;50.870;20.682;2022-09-09T15:03:51;3.67;;;3.38;;
21761;SDS011;11203;50.870;20.682;2022-09-09T15:06:21;4.25;;;3.92;;
21761;SDS011;11203;50.870;20.682;2022-09-09T15:08:49;11.48;;;9.40;;
21761;SDS011;11203;50.870;20.682;2022-09-09T15:11:17;15.77;;;11.80;;
21761;SDS011;11203;50.870;20.682;2022-09-09T15:13:45;13.35;;;11.88;;
21761;SDS011;11203;50.870;20.682;2022-09-09T15:16:16;17.17;;;15.38;;
21761;SDS011;11203;50.870;20.682;2022-09-09T15:18:44;11.05;;;9.00;;
21761;SDS011;11203;50.870;20.682;2022-09-09T15:21:13;12.93;;;10.40;;
21761;SDS011;11203;50.870;20.682;2022-09-09T15:23:47;10.18;;;9.20;;
21761;SDS011;11203;50.870;20.682;2022-09-09T15:26:14;11.15;;;9.93;;
21761;SDS011;11203;50.870;20.682;2022-09-09T15:28:41;9.57;;;8.60;;
21761;SDS011;11203;50.870;20.682;2022-09-09T15:31:09;9.43;;;8.48;;
21761;SDS011;11203;50.870;20.682;2022-09-09T15:33:39;10.45;;;8.82;;
21761;SDS011;11203;50.870;20.682;2022-09-09T15:36:19;7.07;;;5.40;;
21761;SDS011;11203;50.870;20.682;2022-09-09T15:38:51;6.45;;;5.82;;
21761;SDS011;11203;50.870;20.682;2022-09-09T15:41:18;26.67;;;8.60;;
21761;SDS011;11203;50.870;20.682;2022-09-09T15:43:46;8.60;;;7.72;;
21761;SDS011;11203;50.870;20.682;2022-09-09T15:51:44;10.13;;;9.13;;
21761;SDS011;11203;50.870;20.682;2022-09-09T15:54:16;10.80;;;9.70;;
21761;SDS011;11203;50.870;20.682;2022-09-09T15:56:46;11.77;;;9.93;;
21761;SDS011;11203;50.870;20.682;2022-09-09T15:59:16;10.85;;;9.75;;
21761;SDS011;11203;50.870;20.682;2022-09-09T16:01:42;12.27;;;9.88;;
21761;SDS011;11203;50.870;20.682;2022-09-09T16:04:09;16.73;;;13.80;;
21761;SDS011;11203;50.870;20.682;2022-09-09T16:06:36;13.75;;;10.27;;
21761;SDS011;11203;50.870;20.682;2022-09-09T16:09:03;11.73;;;10.50;;
21761;SDS011;11203;50.870;20.682;2022-09-09T16:11:32;13.85;;;10.88;;
21761;SDS011;11203;50.870;20.682;2022-09-09T16:14:01;12.23;;;11.02;;
21761;SDS011;11203;50.870;20.682;2022-09-09T16:16:29;14.88;;;11.35;;
21761;SDS011;11203;50.870;20.682;2022-09-09T16:18:57;13.20;;;11.63;;
21761;SDS011;11203;50.870;20.682;2022-09-09T16:21:28;14.02;;;12.25;;
21761;SDS011;11203;50.870;20.682;2022-09-09T16:24:00;13.10;;;11.35;;
21761;SDS011;11203;50.870;20.682;2022-09-09T16:26:28;13.75;;;11.45;;
21761;SDS011;11203;50.870;20.682;2022-09-09T16:28:59;18.00;;;12.68;;
21761;SDS011;11203;50.870;20.682;2022-09-09T16:31:27;17.30;;;12.00;;
21761;SDS011;11203;50.870;20.682;2022-09-09T16:33:54;14.40;;;11.20;;
21761;SDS011;11203;50.870;20.682;2022-09-09T16:36:21;15.32;;;12.25;;
21761;SDS011;11203;50.870;20.682;2022-09-09T16:38:53;13.25;;;11.88;;
21761;SDS011;11203;50.870;20.682;2022-09-09T16:41:22;14.52;;;12.00;;
21761;SDS011;11203;50.870;20.682;2022-09-09T16:43:53;14.38;;;12.65;;
21761;SDS011;11203;50.870;20.682;2022-09-09T16:46:21;13.55;;;12.23;;
21761;SDS011;11203;50.870;20.682;2022-09-09T16:48:49;13.70;;;12.30;;
21761;SDS011;11203;50.870;20.682;2022-09-09T16:51:17;13.50;;;12.20;;
21761;SDS011;11203;50.870;20.682;2022-09-09T16:53:46;14.82;;;12.32;;
21761;SDS011;11203;50.870;20.682;2022-09-09T16:56:13;15.23;;;13.05;;
21761;SDS011;11203;50.870;20.682;2022-09-09T16:58:43;15.02;;;12.85;;
21761;SDS011;11203;50.870;20.682;2022-09-09T17:01:21;14.27;;;12.48;;
21761;SDS011;11203;50.870;20.682;2022-09-09T17:03:52;17.00;;;14.27;;
21761;SDS011;11203;50.870;20.682;2022-09-09T17:06:29;15.13;;;13.63;;
21761;SDS011;11203;50.870;20.682;2022-09-09T17:09:03;16.35;;;14.25;;
21761;SDS011;11203;50.870;20.682;2022-09-09T17:11:35;16.80;;;14.75;;
21761;SDS011;11203;50.870;20.682;2022-09-09T17:14:03;18.33;;;15.70;;
21761;SDS011;11203;50.870;20.682;2022-09-09T17:16:32;17.27;;;14.68;;
21761;SDS011;11203;50.870;20.682;2022-09-09T17:18:59;15.95;;;14.27;;
21761;SDS011;11203;50.870;20.682;2022-09-09T17:21:27;18.45;;;16.23;;
21761;SDS011;11203;50.870;20.682;2022-09-09T17:23:54;20.15;;;15.80;;
21761;SDS011;11203;50.870;20.682;2022-09-09T17:26:22;32.67;;;27.23;;
21761;SDS011;11203;50.870;20.682;2022-09-09T17:28:52;32.92;;;27.67;;
21761;SDS011;11203;50.870;20.682;2022-09-09T17:31:20;36.30;;;32.00;;
21761;SDS011;11203;50.870;20.682;2022-09-09T17:33:47;53.47;;;47.75;;
21761;SDS011;11203;50.870;20.682;2022-09-09T17:36:22;44.38;;;39.90;;
21761;SDS011;11203;50.870;20.682;2022-09-09T17:38:58;20.83;;;18.63;;